Weather at Campbellville (Bellshill Airpark)

Public forecast

Using degrees Celsius for public forecast. Weather courtesy of forecast.io.

Closest aviation weather report (METAR) to Campbellville (Bellshill Airpark)

Closest report is Region of Waterloo International Airport, 15.5 nm (28.8 km) W.

2024/05/20 12:00 (retrieved 59 minutes ago)

CYKF 201200Z AUTO 00000KT 9SM SCT055 17/13 A3001 RMK SLP161 DENSITY ALT 1400FT

Closest aviation forecast (TAF) to Campbellville (Bellshill Airpark)

Closest forecast is Region of Waterloo International Airport, 15.5 nm (28.8 km) W.

2024/05/20 08:42 (retrieved 4 hours ago)

TAF CYKF 200740Z 2008/2020 VRB03KT P6SM FEW050 PROB30 2008/2012 2SM BR FM201400 12007KT P6SM SCT070 FM201700 17007KT P6SM BKN050 RMK FCST BASED ON AUTO OBS NXT FCST BY 201400Z